sensor_id;sensor_type;location;lat;lon;timestamp;P1;durP1;ratioP1;P2;durP2;ratioP2
31526;SDS011;18136;42.236;-73.040;2023-06-10T00:00:02;4.80;;;0.90;;
31526;SDS011;18136;42.236;-73.040;2023-06-10T00:02:30;1.67;;;0.93;;
31526;SDS011;18136;42.236;-73.040;2023-06-10T00:04:56;2.50;;;0.88;;
31526;SDS011;18136;42.236;-73.040;2023-06-10T00:07:23;1.30;;;1.00;;
31526;SDS011;18136;42.236;-73.040;2023-06-10T00:09:49;0.80;;;0.77;;
31526;SDS011;18136;42.236;-73.040;2023-06-10T00:12:16;0.85;;;0.70;;
31526;SDS011;18136;42.236;-73.040;2023-06-10T00:14:43;0.90;;;0.80;;
31526;SDS011;18136;42.236;-73.040;2023-06-10T00:17:15;0.80;;;0.80;;
31526;SDS011;18136;42.236;-73.040;2023-06-10T00:19:41;5.45;;;1.10;;
31526;SDS011;18136;42.236;-73.040;2023-06-10T00:22:08;0.77;;;0.77;;
31526;SDS011;18136;42.236;-73.040;2023-06-10T00:24:35;0.88;;;0.80;;
31526;SDS011;18136;42.236;-73.040;2023-06-10T00:27:04;0.70;;;0.70;;
31526;SDS011;18136;42.236;-73.040;2023-06-10T00:29:32;0.90;;;0.90;;
31526;SDS011;18136;42.236;-73.040;2023-06-10T00:31:58;1.23;;;0.85;;
31526;SDS011;18136;42.236;-73.040;2023-06-10T00:34:26;0.95;;;0.85;;
31526;SDS011;18136;42.236;-73.040;2023-06-10T00:36:53;2.88;;;1.08;;
31526;SDS011;18136;42.236;-73.040;2023-06-10T00:39:19;1.15;;;0.90;;
31526;SDS011;18136;42.236;-73.040;2023-06-10T00:41:46;1.02;;;0.93;;
31526;SDS011;18136;42.236;-73.040;2023-06-10T00:44:12;1.23;;;0.90;;
31526;SDS011;18136;42.236;-73.040;2023-06-10T00:46:38;0.98;;;0.90;;
31526;SDS011;18136;42.236;-73.040;2023-06-10T00:49:05;1.25;;;1.00;;
31526;SDS011;18136;42.236;-73.040;2023-06-10T00:51:31;1.17;;;0.80;;
31526;SDS011;18136;42.236;-73.040;2023-06-10T00:53:59;0.75;;;0.75;;
31526;SDS011;18136;42.236;-73.040;2023-06-10T00:56:25;1.00;;;0.90;;
31526;SDS011;18136;42.236;-73.040;2023-06-10T00:58:53;1.13;;;1.02;;
31526;SDS011;18136;42.236;-73.040;2023-06-10T01:01:20;1.02;;;0.93;;
31526;SDS011;18136;42.236;-73.040;2023-06-10T01:03:47;0.73;;;0.73;;
31526;SDS011;18136;42.236;-73.040;2023-06-10T01:06:18;0.95;;;0.95;;
31526;SDS011;18136;42.236;-73.040;2023-06-10T01:09:25;1.50;;;1.10;;
31526;SDS011;18136;42.236;-73.040;2023-06-10T01:12:35;1.55;;;1.20;;
31526;SDS011;18136;42.236;-73.040;2023-06-10T01:15:14;0.80;;;0.80;;
31526;SDS011;18136;42.236;-73.040;2023-06-10T01:18:02;0.98;;;0.88;;
31526;SDS011;18136;42.236;-73.040;2023-06-10T01:20:29;1.20;;;1.00;;
31526;SDS011;18136;42.236;-73.040;2023-06-10T01:22:58;0.90;;;0.85;;
31526;SDS011;18136;42.236;-73.040;2023-06-10T01:25:26;0.80;;;0.80;;
31526;SDS011;18136;42.236;-73.040;2023-06-10T01:28:03;1.52;;;1.15;;
31526;SDS011;18136;42.236;-73.040;2023-06-10T01:30:37;0.90;;;0.90;;
31526;SDS011;18136;42.236;-73.040;2023-06-10T01:33:14;3.28;;;1.05;;
31526;SDS011;18136;42.236;-73.040;2023-06-10T01:35:47;1.25;;;0.80;;
31526;SDS011;18136;42.236;-73.040;2023-06-10T01:38:13;0.93;;;0.88;;
31526;SDS011;18136;42.236;-73.040;2023-06-10T01:40:41;0.90;;;0.90;;
31526;SDS011;18136;42.236;-73.040;2023-06-10T01:45:38;1.20;;;1.10;;
31526;SDS011;18136;42.236;-73.040;2023-06-10T01:48:04;1.30;;;1.10;;
31526;SDS011;18136;42.236;-73.040;2023-06-10T01:50:32;0.85;;;0.80;;
31526;SDS011;18136;42.236;-73.040;2023-06-10T01:52:59;1.20;;;1.10;;
31526;SDS011;18136;42.236;-73.040;2023-06-10T01:55:26;0.90;;;0.90;;
31526;SDS011;18136;42.236;-73.040;2023-06-10T01:57:53;1.92;;;0.95;;
31526;SDS011;18136;42.236;-73.040;2023-06-10T02:00:19;1.17;;;0.95;;
31526;SDS011;18136;42.236;-73.040;2023-06-10T02:02:45;1.65;;;1.00;;
31526;SDS011;18136;42.236;-73.040;2023-06-10T02:05:11;2.33;;;0.85;;
31526;SDS011;18136;42.236;-73.040;2023-06-10T02:07:37;1.20;;;1.10;;
31526;SDS011;18136;42.236;-73.040;2023-06-10T02:10:05;1.17;;;1.02;;
31526;SDS011;18136;42.236;-73.040;2023-06-10T02:12:32;1.45;;;1.10;;
31526;SDS011;18136;42.236;-73.040;2023-06-10T02:14:58;1.13;;;1.05;;
31526;SDS011;18136;42.236;-73.040;2023-06-10T02:17:24;1.27;;;1.17;;
31526;SDS011;18136;42.236;-73.040;2023-06-10T02:19:51;1.38;;;1.10;;
31526;SDS011;18136;42.236;-73.040;2023-06-10T02:22:21;1.35;;;1.00;;
31526;SDS011;18136;42.236;-73.040;2023-06-10T02:24:48;1.50;;;1.05;;
31526;SDS011;18136;42.236;-73.040;2023-06-10T02:27:15;2.20;;;0.98;;
31526;SDS011;18136;42.236;-73.040;2023-06-10T02:29:43;1.20;;;1.10;;
31526;SDS011;18136;42.236;-73.040;2023-06-10T02:32:09;1.00;;;0.90;;
31526;SDS011;18136;42.236;-73.040;2023-06-10T02:34:35;1.83;;;1.10;;
31526;SDS011;18136;42.236;-73.040;2023-06-10T02:37:04;1.10;;;1.00;;
31526;SDS011;18136;42.236;-73.040;2023-06-10T02:39:30;1.58;;;1.23;;
31526;SDS011;18136;42.236;-73.040;2023-06-10T02:41:56;1.30;;;1.20;;
31526;SDS011;18136;42.236;-73.040;2023-06-10T02:44:22;1.20;;;1.10;;
31526;SDS011;18136;42.236;-73.040;2023-06-10T02:46:48;1.95;;;1.45;;
31526;SDS011;18136;42.236;-73.040;2023-06-10T02:49:14;1.33;;;1.23;;
31526;SDS011;18136;42.236;-73.040;2023-06-10T02:51:40;1.40;;;1.30;;
31526;SDS011;18136;42.236;-73.040;2023-06-10T02:54:06;1.85;;;1.67;;
31526;SDS011;18136;42.236;-73.040;2023-06-10T02:56:32;1.67;;;1.30;;
31526;SDS011;18136;42.236;-73.040;2023-06-10T02:58:59;2.80;;;1.40;;
31526;SDS011;18136;42.236;-73.040;2023-06-10T03:01:25;1.70;;;1.58;;
31526;SDS011;18136;42.236;-73.040;2023-06-10T03:03:51;1.75;;;1.30;;
31526;SDS011;18136;42.236;-73.040;2023-06-10T03:06:17;1.58;;;1.30;;
31526;SDS011;18136;42.236;-73.040;2023-06-10T03:08:44;1.52;;;1.42;;
31526;SDS011;18136;42.236;-73.040;2023-06-10T03:11:13;2.13;;;1.40;;
31526;SDS011;18136;42.236;-73.040;2023-06-10T03:13:39;2.72;;;1.30;;
31526;SDS011;18136;42.236;-73.040;2023-06-10T03:16:05;2.85;;;1.27;;
31526;SDS011;18136;42.236;-73.040;2023-06-10T03:18:32;1.50;;;1.40;;
31526;SDS011;18136;42.236;-73.040;2023-06-10T03:20:58;1.27;;;1.17;;
31526;SDS011;18136;42.236;-73.040;2023-06-10T03:23:25;5.00;;;1.65;;
31526;SDS011;18136;42.236;-73.040;2023-06-10T03:25:52;1.60;;;1.10;;
31526;SDS011;18136;42.236;-73.040;2023-06-10T03:28:20;1.50;;;1.08;;
31526;SDS011;18136;42.236;-73.040;2023-06-10T03:30:46;2.10;;;1.38;;
31526;SDS011;18136;42.236;-73.040;2023-06-10T03:33:13;2.38;;;1.30;;
31526;SDS011;18136;42.236;-73.040;2023-06-10T03:35:39;1.40;;;1.20;;
31526;SDS011;18136;42.236;-73.040;2023-06-10T03:38:05;1.80;;;1.20;;
31526;SDS011;18136;42.236;-73.040;2023-06-10T03:40:31;1.83;;;1.40;;
31526;SDS011;18136;42.236;-73.040;2023-06-10T03:42:57;1.05;;;1.02;;
31526;SDS011;18136;42.236;-73.040;2023-06-10T03:45:24;2.40;;;1.27;;
31526;SDS011;18136;42.236;-73.040;2023-06-10T03:47:50;0.90;;;0.90;;
31526;SDS011;18136;42.236;-73.040;2023-06-10T03:50:16;1.27;;;1.10;;
31526;SDS011;18136;42.236;-73.040;2023-06-10T03:52:42;2.80;;;1.30;;
31526;SDS011;18136;42.236;-73.040;2023-06-10T03:55:09;1.65;;;1.00;;
31526;SDS011;18136;42.236;-73.040;2023-06-10T03:57:36;1.90;;;1.13;;
31526;SDS011;18136;42.236;-73.040;2023-06-10T04:00:02;1.45;;;1.15;;
31526;SDS011;18136;42.236;-73.040;2023-06-10T04:02:33;1.38;;;1.10;;
31526;SDS011;18136;42.236;-73.040;2023-06-10T04:04:59;2.53;;;1.10;;
31526;SDS011;18136;42.236;-73.040;2023-06-10T04:07:26;1.67;;;1.20;;
31526;SDS011;18136;42.236;-73.040;2023-06-10T04:09:53;2.45;;;1.13;;
31526;SDS011;18136;42.236;-73.040;2023-06-10T04:12:19;2.17;;;1.50;;
31526;SDS011;18136;42.236;-73.040;2023-06-10T04:14:45;1.15;;;1.05;;
31526;SDS011;18136;42.236;-73.040;2023-06-10T04:17:11;1.10;;;1.00;;
31526;SDS011;18136;42.236;-73.040;2023-06-10T04:19:37;1.23;;;1.10;;
31526;SDS011;18136;42.236;-73.040;2023-06-10T04:22:04;1.30;;;1.10;;
31526;SDS011;18136;42.236;-73.040;2023-06-10T04:24:30;2.72;;;1.20;;
31526;SDS011;18136;42.236;-73.040;2023-06-10T04:26:56;1.55;;;1.23;;
31526;SDS011;18136;42.236;-73.040;2023-06-10T04:29:22;1.33;;;1.23;;
31526;SDS011;18136;42.236;-73.040;2023-06-10T04:31:49;1.52;;;1.40;;
31526;SDS011;18136;42.236;-73.040;2023-06-10T04:34:15;3.72;;;1.30;;
31526;SDS011;18136;42.236;-73.040;2023-06-10T04:36:41;1.92;;;1.33;;
31526;SDS011;18136;42.236;-73.040;2023-06-10T04:39:07;1.38;;;1.10;;
31526;SDS011;18136;42.236;-73.040;2023-06-10T04:41:33;3.15;;;1.20;;
31526;SDS011;18136;42.236;-73.040;2023-06-10T04:43:59;1.60;;;1.50;;
31526;SDS011;18136;42.236;-73.040;2023-06-10T04:46:25;1.17;;;1.08;;
31526;SDS011;18136;42.236;-73.040;2023-06-10T04:48:51;1.55;;;1.25;;
31526;SDS011;18136;42.236;-73.040;2023-06-10T04:51:19;1.77;;;1.30;;
31526;SDS011;18136;42.236;-73.040;2023-06-10T04:53:45;2.72;;;1.48;;
31526;SDS011;18136;42.236;-73.040;2023-06-10T04:56:11;1.17;;;1.08;;
31526;SDS011;18136;42.236;-73.040;2023-06-10T04:58:37;1.98;;;1.58;;
31526;SDS011;18136;42.236;-73.040;2023-06-10T05:01:03;1.52;;;1.42;;
31526;SDS011;18136;42.236;-73.040;2023-06-10T05:03:29;1.38;;;1.27;;
31526;SDS011;18136;42.236;-73.040;2023-06-10T05:05:55;4.05;;;1.80;;
31526;SDS011;18136;42.236;-73.040;2023-06-10T05:08:21;1.85;;;1.50;;
31526;SDS011;18136;42.236;-73.040;2023-06-10T05:10:47;1.50;;;1.40;;
31526;SDS011;18136;42.236;-73.040;2023-06-10T05:13:14;1.60;;;1.50;;
31526;SDS011;18136;42.236;-73.040;2023-06-10T05:15:41;1.55;;;1.40;;
31526;SDS011;18136;42.236;-73.040;2023-06-10T05:18:10;1.60;;;1.50;;
31526;SDS011;18136;42.236;-73.040;2023-06-10T05:20:37;1.98;;;1.50;;
31526;SDS011;18136;42.236;-73.040;2023-06-10T05:23:04;2.08;;;1.80;;
31526;SDS011;18136;42.236;-73.040;2023-06-10T05:25:30;1.80;;;1.50;;
31526;SDS011;18136;42.236;-73.040;2023-06-10T05:27:58;1.73;;;1.58;;
31526;SDS011;18136;42.236;-73.040;2023-06-10T05:30:24;1.88;;;1.60;;
31526;SDS011;18136;42.236;-73.040;2023-06-10T05:32:51;1.58;;;1.48;;
31526;SDS011;18136;42.236;-73.040;2023-06-10T05:35:18;1.70;;;1.60;;
31526;SDS011;18136;42.236;-73.040;2023-06-10T05:37:44;3.33;;;2.40;;
31526;SDS011;18136;42.236;-73.040;2023-06-10T05:40:10;1.95;;;1.85;;
31526;SDS011;18136;42.236;-73.040;2023-06-10T05:42:37;3.40;;;1.85;;
31526;SDS011;18136;42.236;-73.040;2023-06-10T05:45:03;3.85;;;1.98;;
31526;SDS011;18136;42.236;-73.040;2023-06-10T05:47:31;1.70;;;1.60;;
31526;SDS011;18136;42.236;-73.040;2023-06-10T05:49:57;1.92;;;1.73;;
31526;SDS011;18136;42.236;-73.040;2023-06-10T05:52:25;3.83;;;1.50;;
31526;SDS011;18136;42.236;-73.040;2023-06-10T05:54:51;2.03;;;1.80;;
31526;SDS011;18136;42.236;-73.040;2023-06-10T05:57:17;1.80;;;1.45;;
31526;SDS011;18136;42.236;-73.040;2023-06-10T05:59:43;3.70;;;1.65;;
31526;SDS011;18136;42.236;-73.040;2023-06-10T06:02:09;2.08;;;1.75;;
31526;SDS011;18136;42.236;-73.040;2023-06-10T06:04:35;2.47;;;1.70;;
31526;SDS011;18136;42.236;-73.040;2023-06-10T06:07:01;2.28;;;1.63;;
31526;SDS011;18136;42.236;-73.040;2023-06-10T06:09:27;2.40;;;1.75;;
31526;SDS011;18136;42.236;-73.040;2023-06-10T06:11:54;1.92;;;1.83;;
31526;SDS011;18136;42.236;-73.040;2023-06-10T06:14:20;2.05;;;1.92;;
31526;SDS011;18136;42.236;-73.040;2023-06-10T06:16:46;3.08;;;2.10;;
31526;SDS011;18136;42.236;-73.040;2023-06-10T06:19:12;6.60;;;2.17;;
31526;SDS011;18136;42.236;-73.040;2023-06-10T06:21:38;4.35;;;2.05;;
31526;SDS011;18136;42.236;-73.040;2023-06-10T06:24:04;5.40;;;1.85;;
31526;SDS011;18136;42.236;-73.040;2023-06-10T06:26:30;1.90;;;1.70;;
31526;SDS011;18136;42.236;-73.040;2023-06-10T06:28:56;1.90;;;1.48;;
31526;SDS011;18136;42.236;-73.040;2023-06-10T06:31:22;1.70;;;1.60;;
31526;SDS011;18136;42.236;-73.040;2023-06-10T06:33:48;1.98;;;1.80;;
31526;SDS011;18136;42.236;-73.040;2023-06-10T06:36:14;2.05;;;1.85;;
31526;SDS011;18136;42.236;-73.040;2023-06-10T06:38:40;2.20;;;1.73;;
31526;SDS011;18136;42.236;-73.040;2023-06-10T06:41:06;2.53;;;1.92;;
31526;SDS011;18136;42.236;-73.040;2023-06-10T06:43:32;1.70;;;1.60;;
31526;SDS011;18136;42.236;-73.040;2023-06-10T06:45:59;1.70;;;1.60;;
31526;SDS011;18136;42.236;-73.040;2023-06-10T06:48:25;3.38;;;1.98;;
31526;SDS011;18136;42.236;-73.040;2023-06-10T06:50:51;1.80;;;1.70;;
31526;SDS011;18136;42.236;-73.040;2023-06-10T06:53:17;7.97;;;2.00;;
31526;SDS011;18136;42.236;-73.040;2023-06-10T06:55:43;3.72;;;1.65;;
31526;SDS011;18136;42.236;-73.040;2023-06-10T06:58:10;1.75;;;1.65;;
31526;SDS011;18136;42.236;-73.040;2023-06-10T07:00:36;2.67;;;1.92;;
31526;SDS011;18136;42.236;-73.040;2023-06-10T07:03:02;2.45;;;1.80;;
31526;SDS011;18136;42.236;-73.040;2023-06-10T07:05:28;1.70;;;1.60;;
31526;SDS011;18136;42.236;-73.040;2023-06-10T07:07:55;3.10;;;1.58;;
31526;SDS011;18136;42.236;-73.040;2023-06-10T07:10:22;1.60;;;1.50;;
31526;SDS011;18136;42.236;-73.040;2023-06-10T07:12:52;1.50;;;1.40;;
31526;SDS011;18136;42.236;-73.040;2023-06-10T07:15:18;2.33;;;1.50;;
31526;SDS011;18136;42.236;-73.040;2023-06-10T07:17:45;1.85;;;1.42;;
31526;SDS011;18136;42.236;-73.040;2023-06-10T07:20:11;2.70;;;1.77;;
31526;SDS011;18136;42.236;-73.040;2023-06-10T07:22:37;3.40;;;1.90;;
31526;SDS011;18136;42.236;-73.040;2023-06-10T07:25:06;2.25;;;1.60;;
31526;SDS011;18136;42.236;-73.040;2023-06-10T07:27:32;2.55;;;1.88;;
31526;SDS011;18136;42.236;-73.040;2023-06-10T07:29:58;2.05;;;1.80;;
31526;SDS011;18136;42.236;-73.040;2023-06-10T07:32:26;2.10;;;1.90;;
31526;SDS011;18136;42.236;-73.040;2023-06-10T07:34:52;2.65;;;1.98;;
31526;SDS011;18136;42.236;-73.040;2023-06-10T07:37:18;2.67;;;2.47;;
31526;SDS011;18136;42.236;-73.040;2023-06-10T07:39:44;3.25;;;2.50;;
31526;SDS011;18136;42.236;-73.040;2023-06-10T07:42:11;2.47;;;2.10;;
31526;SDS011;18136;42.236;-73.040;2023-06-10T07:44:37;2.58;;;2.38;;
31526;SDS011;18136;42.236;-73.040;2023-06-10T07:47:03;2.50;;;2.20;;
31526;SDS011;18136;42.236;-73.040;2023-06-10T07:49:29;3.63;;;1.90;;
31526;SDS011;18136;42.236;-73.040;2023-06-10T07:51:55;2.97;;;2.25;;
31526;SDS011;18136;42.236;-73.040;2023-06-10T07:54:21;2.50;;;2.30;;
31526;SDS011;18136;42.236;-73.040;2023-06-10T07:56:47;4.10;;;3.00;;
31526;SDS011;18136;42.236;-73.040;2023-06-10T07:59:13;4.93;;;2.97;;
31526;SDS011;18136;42.236;-73.040;2023-06-10T08:01:40;4.50;;;2.95;;
31526;SDS011;18136;42.236;-73.040;2023-06-10T08:04:07;2.67;;;2.30;;
31526;SDS011;18136;42.236;-73.040;2023-06-10T08:06:33;3.63;;;3.33;;
31526;SDS011;18136;42.236;-73.040;2023-06-10T08:09:01;2.70;;;2.47;;
31526;SDS011;18136;42.236;-73.040;2023-06-10T08:11:29;2.80;;;2.60;;
31526;SDS011;18136;42.236;-73.040;2023-06-10T08:13:56;4.78;;;2.55;;
31526;SDS011;18136;42.236;-73.040;2023-06-10T08:16:22;2.90;;;2.50;;
31526;SDS011;18136;42.236;-73.040;2023-06-10T08:18:48;4.65;;;3.33;;
31526;SDS011;18136;42.236;-73.040;2023-06-10T08:21:15;2.92;;;2.67;;
31526;SDS011;18136;42.236;-73.040;2023-06-10T08:23:41;2.60;;;2.40;;
31526;SDS011;18136;42.236;-73.040;2023-06-10T08:26:09;3.53;;;2.67;;
31526;SDS011;18136;42.236;-73.040;2023-06-10T08:28:35;2.45;;;2.25;;
31526;SDS011;18136;42.236;-73.040;2023-06-10T08:31:01;4.28;;;2.88;;
31526;SDS011;18136;42.236;-73.040;2023-06-10T08:33:27;2.70;;;2.50;;
31526;SDS011;18136;42.236;-73.040;2023-06-10T08:35:56;4.88;;;2.97;;
31526;SDS011;18136;42.236;-73.040;2023-06-10T08:38:22;3.30;;;2.97;;
31526;SDS011;18136;42.236;-73.040;2023-06-10T08:40:48;4.15;;;3.15;;
31526;SDS011;18136;42.236;-73.040;2023-06-10T08:45:55;5.00;;;2.90;;
31526;SDS011;18136;42.236;-73.040;2023-06-10T08:48:25;4.95;;;2.88;;
31526;SDS011;18136;42.236;-73.040;2023-06-10T08:50:57;3.88;;;2.95;;
31526;SDS011;18136;42.236;-73.040;2023-06-10T08:53:24;2.97;;;2.72;;
31526;SDS011;18136;42.236;-73.040;2023-06-10T08:55:53;3.60;;;2.75;;
31526;SDS011;18136;42.236;-73.040;2023-06-10T08:58:24;2.53;;;2.33;;
31526;SDS011;18136;42.236;-73.040;2023-06-10T09:00:51;3.97;;;2.40;;
31526;SDS011;18136;42.236;-73.040;2023-06-10T09:03:17;2.80;;;2.58;;
31526;SDS011;18136;42.236;-73.040;2023-06-10T09:05:43;2.75;;;2.47;;
31526;SDS011;18136;42.236;-73.040;2023-06-10T09:08:10;5.20;;;3.28;;
31526;SDS011;18136;42.236;-73.040;2023-06-10T09:10:36;3.95;;;2.70;;
31526;SDS011;18136;42.236;-73.040;2023-06-10T09:13:03;3.20;;;2.90;;
31526;SDS011;18136;42.236;-73.040;2023-06-10T09:15:29;3.95;;;2.72;;
31526;SDS011;18136;42.236;-73.040;2023-06-10T09:17:55;5.72;;;3.00;;
31526;SDS011;18136;42.236;-73.040;2023-06-10T09:20:23;3.70;;;3.35;;
31526;SDS011;18136;42.236;-73.040;2023-06-10T09:22:49;3.42;;;3.17;;
31526;SDS011;18136;42.236;-73.040;2023-06-10T09:25:15;3.17;;;2.88;;
31526;SDS011;18136;42.236;-73.040;2023-06-10T09:27:45;2.90;;;2.60;;
31526;SDS011;18136;42.236;-73.040;2023-06-10T09:30:25;4.18;;;3.00;;
31526;SDS011;18136;42.236;-73.040;2023-06-10T09:32:59;3.30;;;3.00;;
31526;SDS011;18136;42.236;-73.040;2023-06-10T09:35:29;4.53;;;3.72;;
31526;SDS011;18136;42.236;-73.040;2023-06-10T09:37:57;5.22;;;3.65;;
31526;SDS011;18136;42.236;-73.040;2023-06-10T09:40:24;3.75;;;3.38;;
31526;SDS011;18136;42.236;-73.040;2023-06-10T09:42:55;8.45;;;3.65;;
31526;SDS011;18136;42.236;-73.040;2023-06-10T09:45:28;3.58;;;3.28;;
31526;SDS011;18136;42.236;-73.040;2023-06-10T09:47:56;4.00;;;3.65;;
31526;SDS011;18136;42.236;-73.040;2023-06-10T09:50:22;4.03;;;3.58;;
31526;SDS011;18136;42.236;-73.040;2023-06-10T09:52:49;3.80;;;3.42;;
31526;SDS011;18136;42.236;-73.040;2023-06-10T09:55:16;3.60;;;3.30;;
31526;SDS011;18136;42.236;-73.040;2023-06-10T09:57:44;4.03;;;3.63;;
31526;SDS011;18136;42.236;-73.040;2023-06-10T10:00:14;4.10;;;3.70;;
31526;SDS011;18136;42.236;-73.040;2023-06-10T10:02:47;3.60;;;3.30;;
31526;SDS011;18136;42.236;-73.040;2023-06-10T10:05:15;3.90;;;3.50;;
31526;SDS011;18136;42.236;-73.040;2023-06-10T10:07:43;3.47;;;3.17;;
31526;SDS011;18136;42.236;-73.040;2023-06-10T10:10:10;3.72;;;3.30;;
31526;SDS011;18136;42.236;-73.040;2023-06-10T10:12:38;4.57;;;3.55;;
31526;SDS011;18136;42.236;-73.040;2023-06-10T10:15:08;3.92;;;3.20;;
31526;SDS011;18136;42.236;-73.040;2023-06-10T10:18:18;3.20;;;2.90;;
31526;SDS011;18136;42.236;-73.040;2023-06-10T10:20:35;4.38;;;3.10;;
31526;SDS011;18136;42.236;-73.040;2023-06-10T10:23:08;3.33;;;3.00;;
31526;SDS011;18136;42.236;-73.040;2023-06-10T10:25:39;3.38;;;3.08;;
31526;SDS011;18136;42.236;-73.040;2023-06-10T10:28:13;3.50;;;3.05;;
31526;SDS011;18136;42.236;-73.040;2023-06-10T10:30:50;3.70;;;3.35;;
31526;SDS011;18136;42.236;-73.040;2023-06-10T10:35:53;3.25;;;2.90;;
31526;SDS011;18136;42.236;-73.040;2023-06-10T10:38:19;3.38;;;3.00;;
31526;SDS011;18136;42.236;-73.040;2023-06-10T10:40:47;3.25;;;2.95;;
31526;SDS011;18136;42.236;-73.040;2023-06-10T10:43:14;4.30;;;3.40;;
31526;SDS011;18136;42.236;-73.040;2023-06-10T10:45:41;3.30;;;3.00;;
31526;SDS011;18136;42.236;-73.040;2023-06-10T10:48:10;3.88;;;3.38;;
31526;SDS011;18136;42.236;-73.040;2023-06-10T10:50:38;3.80;;;3.22;;
31526;SDS011;18136;42.236;-73.040;2023-06-10T10:53:05;3.33;;;2.97;;
31526;SDS011;18136;42.236;-73.040;2023-06-10T10:55:32;3.13;;;2.80;;
31526;SDS011;18136;42.236;-73.040;2023-06-10T10:58:08;3.25;;;2.95;;
31526;SDS011;18136;42.236;-73.040;2023-06-10T11:00:44;2.97;;;2.67;;
31526;SDS011;18136;42.236;-73.040;2023-06-10T11:03:13;2.88;;;2.67;;
31526;SDS011;18136;42.236;-73.040;2023-06-10T11:08:15;4.15;;;3.03;;
31526;SDS011;18136;42.236;-73.040;2023-06-10T11:11:17;3.50;;;2.58;;
31526;SDS011;18136;42.236;-73.040;2023-06-10T11:14:07;2.92;;;2.63;;
31526;SDS011;18136;42.236;-73.040;2023-06-10T11:19:07;2.72;;;2.53;;
31526;SDS011;18136;42.236;-73.040;2023-06-10T11:24:28;3.03;;;2.72;;
31526;SDS011;18136;42.236;-73.040;2023-06-10T11:26:55;2.92;;;2.60;;
31526;SDS011;18136;42.236;-73.040;2023-06-10T11:32:32;2.40;;;2.20;;
31526;SDS011;18136;42.236;-73.040;2023-06-10T11:34:59;2.80;;;2.30;;
31526;SDS011;18136;42.236;-73.040;2023-06-10T11:37:29;3.20;;;2.92;;
31526;SDS011;18136;42.236;-73.040;2023-06-10T11:39:55;3.05;;;2.55;;
31526;SDS011;18136;42.236;-73.040;2023-06-10T11:42:22;4.07;;;2.70;;
31526;SDS011;18136;42.236;-73.040;2023-06-10T11:44:51;2.78;;;2.58;;
31526;SDS011;18136;42.236;-73.040;2023-06-10T11:47:18;2.78;;;2.53;;
31526;SDS011;18136;42.236;-73.040;2023-06-10T11:49:45;2.97;;;2.42;;
31526;SDS011;18136;42.236;-73.040;2023-06-10T11:52:30;2.75;;;2.53;;
31526;SDS011;18136;42.236;-73.040;2023-06-10T11:55:03;2.47;;;2.28;;
31526;SDS011;18136;42.236;-73.040;2023-06-10T11:57:33;2.50;;;2.30;;
31526;SDS011;18136;42.236;-73.040;2023-06-10T12:00:04;2.92;;;2.63;;
31526;SDS011;18136;42.236;-73.040;2023-06-10T12:02:32;2.70;;;2.30;;
31526;SDS011;18136;42.236;-73.040;2023-06-10T12:05:09;3.03;;;2.38;;
31526;SDS011;18136;42.236;-73.040;2023-06-10T12:07:36;3.75;;;2.53;;
31526;SDS011;18136;42.236;-73.040;2023-06-10T12:10:02;2.38;;;2.17;;
31526;SDS011;18136;42.236;-73.040;2023-06-10T12:12:29;2.53;;;2.33;;
31526;SDS011;18136;42.236;-73.040;2023-06-10T12:14:58;2.95;;;2.58;;
31526;SDS011;18136;42.236;-73.040;2023-06-10T12:19:57;4.00;;;2.63;;
31526;SDS011;18136;42.236;-73.040;2023-06-10T12:22:23;2.92;;;2.63;;
31526;SDS011;18136;42.236;-73.040;2023-06-10T12:24:59;2.53;;;2.33;;
31526;SDS011;18136;42.236;-73.040;2023-06-10T12:27:30;2.42;;;1.77;;
31526;SDS011;18136;42.236;-73.040;2023-06-10T12:29:57;2.50;;;2.20;;
31526;SDS011;18136;42.236;-73.040;2023-06-10T12:32:36;2.65;;;2.20;;
31526;SDS011;18136;42.236;-73.040;2023-06-10T12:35:09;4.20;;;2.17;;
31526;SDS011;18136;42.236;-73.040;2023-06-10T12:37:38;2.20;;;2.00;;
31526;SDS011;18136;42.236;-73.040;2023-06-10T12:40:05;5.15;;;2.72;;
31526;SDS011;18136;42.236;-73.040;2023-06-10T12:42:33;2.47;;;2.15;;
31526;SDS011;18136;42.236;-73.040;2023-06-10T12:45:02;2.38;;;2.17;;
31526;SDS011;18136;42.236;-73.040;2023-06-10T12:47:30;2.30;;;2.10;;
31526;SDS011;18136;42.236;-73.040;2023-06-10T12:49:58;2.00;;;1.75;;
31526;SDS011;18136;42.236;-73.040;2023-06-10T12:52:24;2.22;;;2.03;;
31526;SDS011;18136;42.236;-73.040;2023-06-10T12:54:51;2.63;;;2.28;;
31526;SDS011;18136;42.236;-73.040;2023-06-10T12:57:17;2.30;;;2.10;;
31526;SDS011;18136;42.236;-73.040;2023-06-10T12:59:43;2.22;;;2.03;;
31526;SDS011;18136;42.236;-73.040;2023-06-10T13:02:15;2.95;;;2.30;;
31526;SDS011;18136;42.236;-73.040;2023-06-10T13:04:45;2.50;;;2.30;;
31526;SDS011;18136;42.236;-73.040;2023-06-10T13:07:12;2.83;;;2.45;;
31526;SDS011;18136;42.236;-73.040;2023-06-10T13:09:38;3.72;;;1.80;;
31526;SDS011;18136;42.236;-73.040;2023-06-10T13:12:05;2.38;;;2.17;;
31526;SDS011;18136;42.236;-73.040;2023-06-10T13:14:31;3.05;;;1.83;;
31526;SDS011;18136;42.236;-73.040;2023-06-10T13:16:57;2.08;;;1.90;;
31526;SDS011;18136;42.236;-73.040;2023-06-10T13:19:23;1.58;;;1.45;;
31526;SDS011;18136;42.236;-73.040;2023-06-10T13:21:49;2.05;;;1.77;;
31526;SDS011;18136;42.236;-73.040;2023-06-10T13:24:16;2.70;;;2.45;;
31526;SDS011;18136;42.236;-73.040;2023-06-10T13:26:43;2.13;;;1.90;;
31526;SDS011;18136;42.236;-73.040;2023-06-10T13:29:09;2.20;;;2.00;;
31526;SDS011;18136;42.236;-73.040;2023-06-10T13:31:39;2.70;;;2.08;;
31526;SDS011;18136;42.236;-73.040;2023-06-10T13:34:05;2.30;;;2.10;;
31526;SDS011;18136;42.236;-73.040;2023-06-10T13:36:32;2.28;;;2.03;;
31526;SDS011;18136;42.236;-73.040;2023-06-10T13:38:58;2.33;;;2.13;;
31526;SDS011;18136;42.236;-73.040;2023-06-10T13:41:24;2.80;;;2.60;;
31526;SDS011;18136;42.236;-73.040;2023-06-10T13:43:54;2.20;;;2.00;;
31526;SDS011;18136;42.236;-73.040;2023-06-10T13:46:20;2.65;;;2.22;;
31526;SDS011;18136;42.236;-73.040;2023-06-10T13:48:47;2.28;;;2.08;;
31526;SDS011;18136;42.236;-73.040;2023-06-10T13:51:13;2.13;;;2.03;;
31526;SDS011;18136;42.236;-73.040;2023-06-10T13:53:39;2.38;;;2.17;;
31526;SDS011;18136;42.236;-73.040;2023-06-10T13:56:05;2.42;;;2.22;;
31526;SDS011;18136;42.236;-73.040;2023-06-10T13:58:32;2.58;;;2.38;;
31526;SDS011;18136;42.236;-73.040;2023-06-10T14:01:04;2.33;;;2.13;;
31526;SDS011;18136;42.236;-73.040;2023-06-10T14:03:30;2.65;;;2.30;;
31526;SDS011;18136;42.236;-73.040;2023-06-10T14:05:56;2.33;;;1.90;;
31526;SDS011;18136;42.236;-73.040;2023-06-10T14:08:23;2.70;;;2.50;;
31526;SDS011;18136;42.236;-73.040;2023-06-10T14:10:49;1.92;;;1.77;;
31526;SDS011;18136;42.236;-73.040;2023-06-10T14:13:19;2.00;;;1.80;;
31526;SDS011;18136;42.236;-73.040;2023-06-10T14:15:45;1.85;;;1.75;;
31526;SDS011;18136;42.236;-73.040;2023-06-10T14:18:11;3.85;;;1.90;;
31526;SDS011;18136;42.236;-73.040;2023-06-10T14:20:37;1.88;;;1.77;;
31526;SDS011;18136;42.236;-73.040;2023-06-10T14:23:03;1.75;;;1.60;;
31526;SDS011;18136;42.236;-73.040;2023-06-10T14:25:29;1.90;;;1.80;;
31526;SDS011;18136;42.236;-73.040;2023-06-10T14:27:55;2.13;;;2.03;;
31526;SDS011;18136;42.236;-73.040;2023-06-10T14:30:22;5.28;;;1.92;;
31526;SDS011;18136;42.236;-73.040;2023-06-10T14:32:49;1.98;;;1.88;;
31526;SDS011;18136;42.236;-73.040;2023-06-10T14:35:15;2.03;;;1.63;;
31526;SDS011;18136;42.236;-73.040;2023-06-10T14:37:42;1.95;;;1.60;;
31526;SDS011;18136;42.236;-73.040;2023-06-10T14:40:08;1.58;;;1.48;;
31526;SDS011;18136;42.236;-73.040;2023-06-10T14:42:34;1.92;;;1.83;;
31526;SDS011;18136;42.236;-73.040;2023-06-10T14:45:00;3.05;;;1.65;;